createdAt,value
2023-12-19T00:01:20.768Z,99342.28
2023-12-19T00:03:47.472Z,99338.00
2023-12-19T00:06:14.104Z,99345.63
2023-12-19T00:08:40.445Z,99340.25
2023-12-19T00:11:07.293Z,99332.28
2023-12-19T00:13:33.760Z,99332.28
2023-12-19T00:16:00.324Z,99324.31
2023-12-19T00:18:26.923Z,99318.13
2023-12-19T00:20:53.373Z,99326.81
2023-12-19T00:23:19.859Z,99334.44
2023-12-19T00:25:47.227Z,99331.72
2023-12-19T00:28:13.543Z,99334.00
2023-12-19T00:30:40.174Z,99326.97
2023-12-19T00:33:06.797Z,99319.34
2023-12-19T00:35:33.354Z,99307.19
2023-12-19T00:37:59.679Z,99299.94
2023-12-19T00:40:26.046Z,99297.19
2023-12-19T00:42:52.441Z,99297.06
2023-12-19T00:45:18.857Z,99307.56
2023-12-19T00:47:45.545Z,99312.66
2023-12-19T00:50:11.926Z,99323.16
2023-12-19T00:52:38.302Z,99322.06
2023-12-19T00:55:05.170Z,99328.88
2023-12-19T00:57:32.640Z,99328.88
2023-12-19T00:59:59.011Z,99321.97
2023-12-19T01:02:25.382Z,99326.38
2023-12-19T01:04:51.852Z,99333.50
2023-12-19T01:07:18.266Z,99331.84
2023-12-19T01:09:44.705Z,99325.66
2023-12-19T01:12:11.088Z,99326.50
2023-12-19T01:14:37.421Z,99326.50
2023-12-19T01:17:03.884Z,99312.56
2023-12-19T01:19:30.473Z,99329.34
2023-12-19T01:21:56.890Z,99336.50
2023-12-19T01:24:23.320Z,99328.75
2023-12-19T01:26:49.735Z,99340.53
2023-12-19T01:29:16.748Z,99344.19
2023-12-19T01:31:43.340Z,99340.53
2023-12-19T01:34:10.542Z,99332.69
2023-12-19T01:36:39.581Z,99314.94
2023-12-19T01:39:06.000Z,99304.34
2023-12-19T01:41:32.397Z,99304.94
2023-12-19T01:44:02.302Z,99313.38
2023-12-19T01:46:29.133Z,99307.66
2023-12-19T01:48:55.826Z,99305.44
2023-12-19T01:51:22.367Z,99317.22
2023-12-19T01:53:49.549Z,99316.72
2023-12-19T01:56:18.420Z,99308.50
2023-12-19T01:58:45.746Z,99303.97
2023-12-19T02:01:13.567Z,99310.66
2023-12-19T02:03:42.449Z,99307.44
2023-12-19T02:06:11.919Z,99309.44
2023-12-19T02:08:38.257Z,99308.94
2023-12-19T02:11:05.121Z,99297.50
2023-12-19T02:13:31.653Z,99295.59
2023-12-19T02:15:58.313Z,99280.44
2023-12-19T02:18:24.863Z,99281.41
2023-12-19T02:20:51.286Z,99274.38
2023-12-19T02:23:17.772Z,99269.25
2023-12-19T02:25:44.131Z,99274.63
2023-12-19T02:28:10.632Z,99271.16
2023-12-19T02:30:37.563Z,99262.34
2023-12-19T02:33:05.458Z,99273.53
2023-12-19T02:35:32.176Z,99275.91
2023-12-19T02:37:58.574Z,99276.25
2023-12-19T02:40:25.058Z,99268.25
2023-12-19T02:42:51.522Z,99278.75
2023-12-19T02:45:17.969Z,99279.44
2023-12-19T02:47:44.418Z,99282.53
2023-12-19T02:50:11.182Z,99285.63
2023-12-19T02:52:37.489Z,99283.84
2023-12-19T02:55:04.225Z,99277.53
2023-12-19T02:57:30.717Z,99282.63
2023-12-19T02:59:57.114Z,99266.78
2023-12-19T03:02:23.534Z,99263.44
2023-12-19T03:04:49.941Z,99269.91
2023-12-19T03:07:16.560Z,99271.34
2023-12-19T03:09:43.001Z,99255.84
2023-12-19T03:12:09.529Z,99254.75
2023-12-19T03:14:37.636Z,99243.44
2023-12-19T03:17:06.540Z,99243.56
2023-12-19T03:19:33.039Z,99244.53
2023-12-19T03:21:59.551Z,99247.97
2023-12-19T03:24:26.037Z,99260.13
2023-12-19T03:26:52.423Z,99251.19
2023-12-19T03:29:18.767Z,99252.13
2023-12-19T03:31:45.161Z,99243.81
2023-12-19T03:34:11.987Z,99251.81
2023-12-19T03:36:38.760Z,99255.00
2023-12-19T03:39:05.208Z,99248.44
2023-12-19T03:41:31.673Z,99236.88
2023-12-19T03:43:58.052Z,99229.84
2023-12-19T03:46:24.498Z,99223.97
2023-12-19T03:48:50.977Z,99217.19
2023-12-19T03:51:17.476Z,99221.50
2023-12-19T03:53:43.841Z,99216.00
2023-12-19T03:56:10.249Z,99213.97
2023-12-19T03:58:39.297Z,99210.38
2023-12-19T04:01:05.774Z,99201.47
2023-12-19T04:03:32.281Z,99204.59
2023-12-19T04:05:58.709Z,99197.38
2023-12-19T04:08:25.077Z,99198.09
2023-12-19T04:10:51.656Z,99195.72
2023-12-19T04:13:18.112Z,99201.91
2023-12-19T04:15:44.566Z,99202.50
2023-12-19T04:18:11.883Z,99197.38
2023-12-19T04:20:39.109Z,99201.47
2023-12-19T04:23:05.486Z,99200.19
2023-12-19T04:25:31.816Z,99202.94
2023-12-19T04:27:58.211Z,99197.69
2023-12-19T04:30:24.771Z,99191.13
2023-12-19T04:32:51.318Z,99187.09
2023-12-19T04:35:17.701Z,99184.72
2023-12-19T04:37:44.097Z,99167.56
2023-12-19T04:40:10.788Z,99170.69
2023-12-19T04:42:37.175Z,99182.47
2023-12-19T04:45:03.787Z,99173.06
2023-12-19T04:47:30.216Z,99171.41
2023-12-19T04:49:56.743Z,99163.22
2023-12-19T04:52:23.350Z,99167.88
2023-12-19T04:54:49.730Z,99173.47
2023-12-19T04:57:16.115Z,99162.63
2023-12-19T04:59:42.530Z,99141.94
2023-12-19T05:02:08.946Z,99148.38
2023-12-19T05:04:35.395Z,99150.41
2023-12-19T05:07:01.921Z,99161.81
2023-12-19T05:09:28.398Z,99172.19
2023-12-19T05:11:54.770Z,99152.06
2023-12-19T05:14:21.186Z,99160.38
2023-12-19T05:16:47.600Z,99160.00
2023-12-19T05:19:14.465Z,99152.03
2023-12-19T05:21:41.124Z,99150.38
2023-12-19T05:24:07.604Z,99142.63
2023-12-19T05:26:33.995Z,99139.06
2023-12-19T05:29:00.464Z,99135.50
2023-12-19T05:31:26.970Z,99132.75
2023-12-19T05:33:53.469Z,99128.38
2023-12-19T05:36:20.133Z,99115.28
2023-12-19T05:38:46.462Z,99115.84
2023-12-19T05:41:12.796Z,99120.97
2023-12-19T05:43:39.200Z,99113.47
2023-12-19T05:46:05.630Z,99116.69
2023-12-19T05:48:32.106Z,99113.56
2023-12-19T05:50:58.556Z,99105.22
2023-12-19T05:53:25.056Z,99113.66
2023-12-19T05:55:51.510Z,99121.25
2023-12-19T05:58:18.217Z,99112.22
2023-12-19T06:00:44.965Z,99106.34
2023-12-19T06:03:11.632Z,99108.00
2023-12-19T06:05:38.027Z,99105.13
2023-12-19T06:08:04.756Z,99104.75
2023-12-19T06:10:31.151Z,99104.41
2023-12-19T06:12:57.499Z,99103.31
2023-12-19T06:15:24.310Z,99107.91
2023-12-19T06:17:50.841Z,99116.94
2023-12-19T06:20:17.368Z,99114.53
2023-12-19T06:22:44.102Z,99115.09
2023-12-19T06:25:12.391Z,99129.63
2023-12-19T06:27:38.839Z,99129.75
2023-12-19T06:30:14.773Z,99122.31
2023-12-19T06:32:49.304Z,99127.75
2023-12-19T06:35:15.815Z,99114.97
2023-12-19T06:37:42.380Z,99119.56
2023-12-19T06:40:09.330Z,99122.63
2023-12-19T06:42:35.766Z,99121.53
2023-12-19T06:45:02.165Z,99125.59
2023-12-19T06:47:29.393Z,99121.03
2023-12-19T06:49:55.975Z,99116.63
2023-12-19T06:52:22.633Z,99123.53
2023-12-19T06:54:49.116Z,99109.59
2023-12-19T06:57:15.764Z,99104.22
2023-12-19T06:59:42.113Z,99093.31
2023-12-19T07:02:08.788Z,99091.25
2023-12-19T07:04:35.313Z,99097.31
2023-12-19T07:07:01.816Z,99091.41
2023-12-19T07:09:28.263Z,99091.47
2023-12-19T07:11:54.640Z,99090.66
2023-12-19T07:14:20.968Z,99103.72
2023-12-19T07:16:47.688Z,99103.88
2023-12-19T07:19:17.338Z,99104.97
2023-12-19T07:21:43.787Z,99107.59
2023-12-19T07:24:10.671Z,99111.88
2023-12-19T07:26:37.018Z,99111.34
2023-12-19T07:29:03.668Z,99124.75
2023-12-19T07:31:31.571Z,99125.50
2023-12-19T07:34:01.855Z,99137.53
2023-12-19T07:36:29.300Z,99130.75
2023-12-19T07:38:55.753Z,99135.31
2023-12-19T07:41:23.640Z,99136.84
2023-12-19T07:43:50.333Z,99128.28
2023-12-19T07:46:16.730Z,99128.31
2023-12-19T07:48:43.171Z,99123.06
2023-12-19T07:51:15.320Z,99119.75
2023-12-19T07:53:41.658Z,99115.63
2023-12-19T07:56:08.232Z,99120.47
2023-12-19T07:58:34.587Z,99128.75
2023-12-19T08:01:01.582Z,99123.63
2023-12-19T08:03:31.922Z,99120.88
2023-12-19T08:05:58.380Z,99114.63
2023-12-19T08:08:24.771Z,99119.06
2023-12-19T08:10:51.806Z,99123.91
2023-12-19T08:13:18.888Z,99118.94
2023-12-19T08:15:46.382Z,99127.25
2023-12-19T08:18:12.874Z,99127.66
2023-12-19T08:20:39.423Z,99124.59
2023-12-19T08:23:05.864Z,99121.28
2023-12-19T08:25:32.661Z,99113.25
2023-12-19T08:27:59.130Z,99100.09
2023-12-19T08:30:26.237Z,99092.19
2023-12-19T08:32:52.670Z,99094.81
2023-12-19T08:35:19.052Z,99090.53
2023-12-19T08:37:45.683Z,99095.25
2023-12-19T08:40:12.409Z,99079.06
2023-12-19T08:42:38.936Z,99069.34
2023-12-19T08:45:05.726Z,99070.91
2023-12-19T08:47:32.072Z,99073.53
2023-12-19T08:49:58.734Z,99073.94
2023-12-19T08:52:25.441Z,99059.97
2023-12-19T08:54:51.936Z,99053.91
2023-12-19T08:57:18.364Z,99047.50
2023-12-19T08:59:44.773Z,99033.94
2023-12-19T09:02:11.122Z,99051.53
2023-12-19T09:04:37.678Z,99055.81
2023-12-19T09:07:04.327Z,99045.56
2023-12-19T09:09:30.716Z,99043.22
2023-12-19T09:11:57.105Z,99045.72
2023-12-19T09:14:23.531Z,99046.69
2023-12-19T09:16:49.900Z,99058.16
2023-12-19T09:19:16.684Z,99063.41
2023-12-19T09:21:43.176Z,99060.22
2023-12-19T09:24:09.592Z,99043.31
2023-12-19T09:26:39.345Z,99030.13
2023-12-19T09:29:08.665Z,99027.31
2023-12-19T09:31:35.307Z,99019.81
2023-12-19T09:34:02.003Z,99010.75
2023-12-19T09:36:28.449Z,99011.41
2023-12-19T09:38:54.799Z,99018.44
2023-12-19T09:41:21.236Z,99011.84
2023-12-19T09:43:47.660Z,99007.03
2023-12-19T09:46:14.060Z,99009.47
2023-12-19T09:48:42.650Z,98996.91
2023-12-19T09:51:19.846Z,98987.28
2023-12-19T09:53:49.143Z,98974.63
2023-12-19T09:56:16.924Z,98982.75
2023-12-19T09:58:45.616Z,98996.44
2023-12-19T10:01:12.299Z,98987.41
2023-12-19T10:03:38.819Z,98979.72
2023-12-19T10:06:05.614Z,98966.91
2023-12-19T10:08:32.290Z,98975.34
2023-12-19T10:10:58.623Z,98978.34
2023-12-19T10:13:33.174Z,98973.13
2023-12-19T10:16:29.458Z,98976.00
2023-12-19T10:18:56.755Z,98972.25
2023-12-19T10:21:23.879Z,98963.44
2023-12-19T10:23:50.218Z,98966.94
2023-12-19T10:26:16.596Z,98966.13
2023-12-19T10:28:42.927Z,98959.47
2023-12-19T10:31:11.484Z,98957.84
2023-12-19T10:33:43.895Z,98946.03
2023-12-19T10:36:28.347Z,98948.75
2023-12-19T10:38:56.370Z,98931.09
2023-12-19T10:41:25.478Z,98932.94
2023-12-19T10:43:53.555Z,98925.38
2023-12-19T10:46:20.736Z,98915.44
2023-12-19T10:48:47.251Z,98919.06
2023-12-19T10:51:17.179Z,98922.06
2023-12-19T10:53:47.988Z,98917.41
2023-12-19T10:56:17.377Z,98917.25
2023-12-19T10:58:49.675Z,98926.50
2023-12-19T11:01:20.068Z,98920.06
2023-12-19T11:03:56.837Z,98907.34
2023-12-19T11:06:26.605Z,98903.69
2023-12-19T11:08:55.745Z,98893.78
2023-12-19T11:11:31.888Z,98896.25
2023-12-19T11:14:00.909Z,98888.00
2023-12-19T11:16:33.936Z,98891.97
2023-12-19T11:19:16.884Z,98884.53
2023-12-19T11:21:58.303Z,98891.94
2023-12-19T11:24:29.979Z,98897.06
2023-12-19T11:27:17.775Z,98900.84
2023-12-19T11:29:45.019Z,98894.22
2023-12-19T11:32:34.796Z,98898.03
2023-12-19T11:35:07.226Z,98885.47
2023-12-19T11:37:35.155Z,98885.31
2023-12-19T11:40:01.541Z,98881.34
2023-12-19T11:42:40.715Z,98868.63
2023-12-19T11:45:19.572Z,98867.97
2023-12-19T11:47:47.577Z,98860.53
2023-12-19T11:50:45.943Z,98851.78
2023-12-19T11:53:12.321Z,98852.09
2023-12-19T11:55:38.692Z,98845.16
2023-12-19T11:58:12.789Z,98834.28
2023-12-19T12:00:42.504Z,98838.56
2023-12-19T12:03:12.979Z,98827.00
2023-12-19T12:05:40.303Z,98829.31
2023-12-19T12:08:07.307Z,98820.22
2023-12-19T12:10:33.691Z,98820.41
2023-12-19T12:13:03.490Z,98810.94
2023-12-19T12:15:29.943Z,98796.38
2023-12-19T12:18:07.955Z,98782.94
2023-12-19T12:20:35.090Z,98780.94
2023-12-19T12:23:02.590Z,98778.09
2023-12-19T12:25:29.872Z,98763.50
2023-12-19T12:28:09.408Z,98767.13
2023-12-19T12:30:37.122Z,98764.94
2023-12-19T12:33:05.408Z,98756.09
2023-12-19T12:35:35.170Z,98749.75
2023-12-19T12:38:09.167Z,98735.25
2023-12-19T12:40:35.533Z,98726.81
2023-12-19T12:43:29.040Z,98728.84
2023-12-19T12:46:06.088Z,98713.53
2023-12-19T12:48:32.593Z,98711.19
2023-12-19T12:50:59.999Z,98714.75
2023-12-19T12:53:26.502Z,98705.16
2023-12-19T12:56:14.671Z,98694.44
2023-12-19T12:58:41.612Z,98690.44
2023-12-19T13:01:09.202Z,98690.31
2023-12-19T13:03:35.898Z,98702.56
2023-12-19T13:06:03.090Z,98686.84
2023-12-19T13:08:30.271Z,98688.13
2023-12-19T13:11:00.741Z,98674.88
2023-12-19T13:13:27.768Z,98677.91
2023-12-19T13:15:54.514Z,98665.38
2023-12-19T13:18:22.707Z,98656.19
2023-12-19T13:20:49.730Z,98648.13
2023-12-19T13:23:16.234Z,98634.41
2023-12-19T13:25:42.658Z,98634.97
2023-12-19T13:28:09.511Z,98641.72
2023-12-19T13:30:38.716Z,98636.44
2023-12-19T13:33:06.976Z,98636.25
2023-12-19T13:35:35.925Z,98635.88
2023-12-19T13:38:02.884Z,98628.38
2023-12-19T13:40:29.466Z,98631.41
2023-12-19T13:42:56.902Z,98625.63
2023-12-19T13:45:30.484Z,98637.53
2023-12-19T13:47:57.633Z,98643.47
2023-12-19T13:50:24.096Z,98640.25
2023-12-19T13:52:50.510Z,98634.75
2023-12-19T13:55:17.512Z,98637.88
2023-12-19T13:57:44.527Z,98637.59
2023-12-19T14:00:16.747Z,98639.06
2023-12-19T14:02:46.078Z,98633.69
2023-12-19T14:05:12.763Z,98627.47
2023-12-19T14:07:40.224Z,98616.03
2023-12-19T14:10:07.956Z,98627.66
2023-12-19T14:12:38.289Z,98626.63
2023-12-19T14:15:05.300Z,98619.59
2023-12-19T14:17:31.953Z,98606.28
2023-12-19T14:19:58.360Z,98596.25
2023-12-19T14:22:24.792Z,98599.81
2023-12-19T14:24:51.243Z,98601.50
2023-12-19T14:27:17.638Z,98605.50
2023-12-19T14:29:43.984Z,98609.16
2023-12-19T14:32:10.336Z,98609.88
2023-12-19T14:34:36.803Z,98619.28
2023-12-19T14:37:03.301Z,98614.81
2023-12-19T14:39:29.810Z,98606.06
2023-12-19T14:41:56.294Z,98606.88
2023-12-19T14:44:22.625Z,98604.88
2023-12-19T14:46:49.002Z,98595.09
2023-12-19T14:49:15.920Z,98600.94
2023-12-19T14:51:42.582Z,98599.13
2023-12-19T14:54:08.955Z,98595.63
2023-12-19T14:56:35.297Z,98589.69
2023-12-19T14:59:01.684Z,98582.75
2023-12-19T15:01:28.114Z,98587.06
2023-12-19T15:03:54.527Z,98583.88
2023-12-19T15:06:21.730Z,98589.91
2023-12-19T15:08:48.312Z,98590.91
2023-12-19T15:11:14.912Z,98588.75
2023-12-19T15:13:41.676Z,98588.44
2023-12-19T15:16:08.095Z,98581.69
2023-12-19T15:18:39.291Z,98582.50
2023-12-19T15:21:07.158Z,98584.69
2023-12-19T15:23:34.416Z,98578.75
2023-12-19T15:26:00.958Z,98588.50
2023-12-19T15:28:27.367Z,98582.94
2023-12-19T15:30:53.783Z,98588.91
2023-12-19T15:33:20.246Z,98589.44
2023-12-19T15:35:46.701Z,98581.13
2023-12-19T15:38:13.069Z,98562.44
2023-12-19T15:40:42.213Z,98558.28
2023-12-19T15:43:08.721Z,98558.22
2023-12-19T15:45:35.167Z,98564.25
2023-12-19T15:48:01.657Z,98568.72
2023-12-19T15:50:28.012Z,98567.09
2023-12-19T15:52:54.344Z,98561.31
2023-12-19T15:55:20.740Z,98556.03
2023-12-19T15:57:47.137Z,98564.31
2023-12-19T16:00:14.119Z,98558.56
2023-12-19T16:02:46.048Z,98556.94
2023-12-19T16:05:15.386Z,98547.34
2023-12-19T16:07:41.767Z,98533.31
2023-12-19T16:10:08.491Z,98532.03
2023-12-19T16:12:35.133Z,98533.56
2023-12-19T16:15:01.538Z,98533.47
2023-12-19T16:17:27.927Z,98530.16
2023-12-19T16:19:54.375Z,98525.06
2023-12-19T16:22:21.690Z,98529.69
2023-12-19T16:24:48.117Z,98520.44
2023-12-19T16:27:14.494Z,98517.22
2023-12-19T16:29:40.841Z,98520.38
2023-12-19T16:32:07.358Z,98518.09
2023-12-19T16:34:34.129Z,98515.31
2023-12-19T16:37:00.703Z,98513.66
2023-12-19T16:39:27.124Z,98510.19
2023-12-19T16:41:53.459Z,98511.84
2023-12-19T16:44:19.782Z,98503.72
2023-12-19T16:46:47.192Z,98509.19
2023-12-19T16:49:13.821Z,98504.91
2023-12-19T16:51:40.636Z,98507.38
2023-12-19T16:54:07.196Z,98505.72
2023-12-19T16:56:34.800Z,98497.97
2023-12-19T16:59:02.096Z,98499.97
2023-12-19T17:01:28.493Z,98495.50
2023-12-19T17:03:55.474Z,98493.84
2023-12-19T17:06:21.887Z,98484.09
2023-12-19T17:08:48.213Z,98479.63
2023-12-19T17:11:14.623Z,98471.53
2023-12-19T17:13:40.951Z,98473.00
2023-12-19T17:16:07.409Z,98472.34
2023-12-19T17:18:34.056Z,98484.28
2023-12-19T17:21:00.672Z,98477.53
2023-12-19T17:23:30.864Z,98469.13
2023-12-19T17:26:03.144Z,98482.50
2023-12-19T17:28:29.585Z,98473.13
2023-12-19T17:30:55.984Z,98474.78
2023-12-19T17:33:22.350Z,98478.94
2023-12-19T17:35:48.750Z,98471.38
2023-12-19T17:38:15.109Z,98485.41
2023-12-19T17:40:41.494Z,98478.13
2023-12-19T17:43:07.938Z,98476.66
2023-12-19T17:45:34.274Z,98471.53
2023-12-19T17:48:00.699Z,98475.53
2023-12-19T17:50:27.186Z,98469.44
2023-12-19T17:52:53.620Z,98467.31
2023-12-19T17:55:19.998Z,98462.16
2023-12-19T17:57:46.408Z,98461.69
2023-12-19T18:00:13.136Z,98451.94
2023-12-19T18:02:39.773Z,98449.81
2023-12-19T18:05:06.408Z,98451.66
2023-12-19T18:07:32.937Z,98441.91
2023-12-19T18:09:59.409Z,98436.78
2023-12-19T18:12:25.793Z,98429.56
2023-12-19T18:14:52.346Z,98424.09
2023-12-19T18:17:18.748Z,98416.34
2023-12-19T18:19:45.366Z,98410.59
2023-12-19T18:22:11.821Z,98404.31
2023-12-19T18:24:38.290Z,98395.22
2023-12-19T18:27:05.240Z,98387.47
2023-12-19T18:29:32.051Z,98382.66
2023-12-19T18:31:58.461Z,98381.13
2023-12-19T18:34:25.009Z,98371.03
2023-12-19T18:36:51.504Z,98374.31
2023-12-19T18:39:18.156Z,98369.03
2023-12-19T18:41:47.564Z,98371.34
2023-12-19T18:44:13.900Z,98365.91
2023-12-19T18:46:41.352Z,98361.91
2023-12-19T18:49:09.456Z,98349.69
2023-12-19T18:51:36.055Z,98344.06
2023-12-19T18:54:02.498Z,98345.69
2023-12-19T18:56:28.953Z,98321.28
2023-12-19T18:58:55.292Z,98329.19
2023-12-19T19:01:23.682Z,98319.81
2023-12-19T19:03:50.321Z,98324.44
2023-12-19T19:06:16.732Z,98331.38
2023-12-19T19:08:43.354Z,98318.81
2023-12-19T19:11:09.755Z,98317.63
2023-12-19T19:13:36.318Z,98319.63
2023-12-19T19:16:02.859Z,98306.13
2023-12-19T19:18:31.064Z,98308.81
2023-12-19T19:20:57.710Z,98292.97
2023-12-19T19:23:24.111Z,98290.50
2023-12-19T19:25:50.582Z,98290.69
2023-12-19T19:28:17.129Z,98296.41
2023-12-19T19:30:47.550Z,98305.47
2023-12-19T19:33:14.425Z,98303.31
2023-12-19T19:35:40.938Z,98290.56
2023-12-19T19:38:07.569Z,98299.50
2023-12-19T19:40:41.398Z,98294.03
2023-12-19T19:43:11.235Z,98295.03
2023-12-19T19:45:38.286Z,98281.00
2023-12-19T19:48:05.364Z,98278.72
2023-12-19T19:50:31.821Z,98287.13
2023-12-19T19:52:59.321Z,98290.59
2023-12-19T19:55:26.207Z,98284.63
2023-12-19T19:57:52.983Z,98286.28
2023-12-19T20:00:19.675Z,98285.28
2023-12-19T20:02:46.198Z,98288.19
2023-12-19T20:05:13.028Z,98284.19
2023-12-19T20:07:39.639Z,98282.38
2023-12-19T20:10:06.836Z,98275.09
2023-12-19T20:12:33.592Z,98291.59
2023-12-19T20:17:51.229Z,98281.97
2023-12-19T20:20:17.736Z,98283.06
2023-12-19T20:22:44.359Z,98275.78
2023-12-19T20:25:12.129Z,98288.00
2023-12-19T20:30:28.607Z,98295.56
2023-12-19T20:32:55.036Z,98290.56
2023-12-19T20:35:21.451Z,98281.44
2023-12-19T20:37:51.434Z,98279.28
2023-12-19T20:40:18.037Z,98277.47
2023-12-19T20:45:34.839Z,98270.81
2023-12-19T20:50:52.139Z,98255.66
2023-12-19T20:53:18.584Z,98245.97
2023-12-19T20:55:45.209Z,98251.56
2023-12-19T20:58:11.674Z,98250.84
2023-12-19T21:00:38.152Z,98253.75
2023-12-19T21:03:04.633Z,98248.44
2023-12-19T21:05:31.027Z,98240.41
2023-12-19T21:07:57.447Z,98250.47
2023-12-19T21:10:23.850Z,98244.63
2023-12-19T21:12:50.522Z,98232.66
2023-12-19T21:15:17.021Z,98234.47
2023-12-19T21:17:43.550Z,98216.97
2023-12-19T21:20:10.663Z,98228.72
2023-12-19T21:22:37.005Z,98218.78
2023-12-19T21:25:03.911Z,98202.72
2023-12-19T21:27:30.458Z,98203.16
2023-12-19T21:29:56.887Z,98204.22
2023-12-19T21:32:23.218Z,98184.88
2023-12-19T21:34:49.784Z,98180.91
2023-12-19T21:37:16.360Z,98185.00
2023-12-19T21:39:42.871Z,98196.41
2023-12-19T21:42:09.330Z,98184.44
2023-12-19T21:44:35.687Z,98172.84
2023-12-19T21:47:03.200Z,98166.53
2023-12-19T21:49:29.722Z,98157.41
2023-12-19T21:51:56.158Z,98150.91
2023-12-19T21:54:22.615Z,98154.81
2023-12-19T21:56:49.063Z,98150.97
2023-12-19T21:59:15.469Z,98155.25
2023-12-19T22:01:45.258Z,98154.06
2023-12-19T22:04:11.956Z,98154.50
2023-12-19T22:06:38.530Z,98148.59
2023-12-19T22:09:05.085Z,98147.56
2023-12-19T22:11:36.638Z,98143.28
2023-12-19T22:14:05.577Z,98148.78
2023-12-19T22:16:32.903Z,98142.47
2023-12-19T22:19:00.313Z,98159.19
2023-12-19T22:21:26.950Z,98151.78
2023-12-19T22:23:53.947Z,98151.34
2023-12-19T22:26:21.014Z,98146.22
2023-12-19T22:28:48.966Z,98147.06
2023-12-19T22:31:16.276Z,98138.22
2023-12-19T22:33:42.929Z,98136.22
2023-12-19T22:36:09.385Z,98123.56
2023-12-19T22:38:36.916Z,98128.66
2023-12-19T22:41:03.444Z,98124.00
2023-12-19T22:43:29.781Z,98126.19
2023-12-19T22:45:56.313Z,98118.44
2023-12-19T22:48:22.914Z,98114.78
2023-12-19T22:50:50.335Z,98110.75
2023-12-19T22:53:16.679Z,98124.63
2023-12-19T22:55:43.001Z,98108.53
2023-12-19T22:58:09.877Z,98115.66
2023-12-19T23:00:36.501Z,98095.69
2023-12-19T23:03:03.240Z,98083.88
2023-12-19T23:05:29.568Z,98091.25
2023-12-19T23:07:56.015Z,98080.66
2023-12-19T23:10:22.613Z,98079.22
2023-12-19T23:12:49.778Z,98065.16
2023-12-19T23:15:16.188Z,98062.91
2023-12-19T23:17:42.607Z,98066.13
2023-12-19T23:20:09.850Z,98080.56
2023-12-19T23:22:36.374Z,98089.50
2023-12-19T23:25:02.777Z,98090.34
2023-12-19T23:27:29.146Z,98085.22
2023-12-19T23:29:55.528Z,98089.75
2023-12-19T23:32:21.919Z,98079.59
2023-12-19T23:34:48.318Z,98083.06
2023-12-19T23:37:14.936Z,98085.34
2023-12-19T23:39:41.429Z,98089.38
2023-12-19T23:42:07.854Z,98091.63
2023-12-19T23:44:34.194Z,98091.69
2023-12-19T23:47:00.521Z,98090.69
2023-12-19T23:49:26.981Z,98081.28
2023-12-19T23:51:53.467Z,98082.94
2023-12-19T23:54:19.867Z,98075.63
2023-12-19T23:56:46.288Z,98084.22
2023-12-19T23:59:12.719Z,98072.78
